Aviation Digital Data Service (ADDS)

Output produced by METARs form (0321 UTC 06 May 2015)
found at http://aviationweather.gov/adds/metars/
 
KHYA 052324Z 0600/0624 16007KT P6SM SCT060 
     FM060200 VRB03KT P6SM BKN050 
     FM061200 03007KT P6SM BKN140 
     FM061600 11005KT P6SM SCT150 
     FM061700 17006KT P6SM SCT150 
     FM062000 21007KT P6SM SCT150